sensor_id;sensor_type;location;lat;lon;timestamp;P1;durP1;ratioP1;P2;durP2;ratioP2
83115;SDS011;72996;40.206;44.498;2024-01-11T00:02:23;36.90;;;18.77;;
83115;SDS011;72996;40.206;44.498;2024-01-11T00:04:49;37.95;;;18.52;;
83115;SDS011;72996;40.206;44.498;2024-01-11T00:07:15;38.17;;;18.55;;
83115;SDS011;72996;40.206;44.498;2024-01-11T00:09:41;35.90;;;17.25;;
83115;SDS011;72996;40.206;44.498;2024-01-11T00:12:08;36.35;;;17.40;;
83115;SDS011;72996;40.206;44.498;2024-01-11T00:14:34;38.60;;;19.08;;
83115;SDS011;72996;40.206;44.498;2024-01-11T00:17:00;34.70;;;18.15;;
83115;SDS011;72996;40.206;44.498;2024-01-11T00:19:26;35.97;;;17.25;;
83115;SDS011;72996;40.206;44.498;2024-01-11T00:21:51;32.30;;;17.35;;
83115;SDS011;72996;40.206;44.498;2024-01-11T00:24:17;29.35;;;15.40;;
83115;SDS011;72996;40.206;44.498;2024-01-11T00:26:42;25.73;;;13.70;;
83115;SDS011;72996;40.206;44.498;2024-01-11T00:29:08;22.23;;;10.80;;
83115;SDS011;72996;40.206;44.498;2024-01-11T00:31:34;22.65;;;12.02;;
83115;SDS011;72996;40.206;44.498;2024-01-11T00:34:00;20.83;;;10.50;;
83115;SDS011;72996;40.206;44.498;2024-01-11T00:36:26;19.85;;;10.07;;
83115;SDS011;72996;40.206;44.498;2024-01-11T00:38:53;20.75;;;10.48;;
83115;SDS011;72996;40.206;44.498;2024-01-11T00:41:19;18.27;;;8.95;;
83115;SDS011;72996;40.206;44.498;2024-01-11T00:43:45;16.02;;;8.55;;
83115;SDS011;72996;40.206;44.498;2024-01-11T00:46:10;17.20;;;9.05;;
83115;SDS011;72996;40.206;44.498;2024-01-11T00:48:36;19.27;;;8.95;;
83115;SDS011;72996;40.206;44.498;2024-01-11T00:51:03;16.65;;;8.75;;
83115;SDS011;72996;40.206;44.498;2024-01-11T00:53:30;15.48;;;7.47;;
83115;SDS011;72996;40.206;44.498;2024-01-11T00:55:59;17.42;;;8.27;;
83115;SDS011;72996;40.206;44.498;2024-01-11T00:58:25;16.92;;;8.77;;
83115;SDS011;72996;40.206;44.498;2024-01-11T01:00:51;20.83;;;9.70;;
83115;SDS011;72996;40.206;44.498;2024-01-11T01:03:18;18.35;;;9.55;;
83115;SDS011;72996;40.206;44.498;2024-01-11T01:05:45;17.20;;;9.10;;
83115;SDS011;72996;40.206;44.498;2024-01-11T01:08:11;16.40;;;8.70;;
83115;SDS011;72996;40.206;44.498;2024-01-11T01:10:37;15.68;;;7.38;;
83115;SDS011;72996;40.206;44.498;2024-01-11T01:13:02;14.52;;;7.10;;
83115;SDS011;72996;40.206;44.498;2024-01-11T01:15:28;14.10;;;7.53;;
83115;SDS011;72996;40.206;44.498;2024-01-11T01:17:54;12.20;;;6.60;;
83115;SDS011;72996;40.206;44.498;2024-01-11T01:20:19;12.95;;;6.50;;
83115;SDS011;72996;40.206;44.498;2024-01-11T01:22:45;12.32;;;6.65;;
83115;SDS011;72996;40.206;44.498;2024-01-11T01:25:11;14.20;;;6.82;;
83115;SDS011;72996;40.206;44.498;2024-01-11T01:27:36;12.50;;;5.90;;
83115;SDS011;72996;40.206;44.498;2024-01-11T01:30:02;11.93;;;6.00;;
83115;SDS011;72996;40.206;44.498;2024-01-11T01:32:29;12.90;;;6.05;;
83115;SDS011;72996;40.206;44.498;2024-01-11T01:34:55;12.68;;;6.38;;
83115;SDS011;72996;40.206;44.498;2024-01-11T01:37:21;11.38;;;5.85;;
83115;SDS011;72996;40.206;44.498;2024-01-11T01:39:47;11.77;;;5.95;;
83115;SDS011;72996;40.206;44.498;2024-01-11T01:42:12;11.43;;;6.03;;
83115;SDS011;72996;40.206;44.498;2024-01-11T01:44:38;11.90;;;5.85;;
83115;SDS011;72996;40.206;44.498;2024-01-11T01:47:06;12.68;;;6.50;;
83115;SDS011;72996;40.206;44.498;2024-01-11T01:49:33;13.00;;;6.40;;
83115;SDS011;72996;40.206;44.498;2024-01-11T01:51:59;11.43;;;6.38;;
83115;SDS011;72996;40.206;44.498;2024-01-11T01:54:25;11.38;;;5.82;;
83115;SDS011;72996;40.206;44.498;2024-01-11T01:56:52;14.45;;;6.57;;
83115;SDS011;72996;40.206;44.498;2024-01-11T01:59:19;13.00;;;6.30;;
83115;SDS011;72996;40.206;44.498;2024-01-11T02:01:46;13.55;;;6.65;;
83115;SDS011;72996;40.206;44.498;2024-01-11T02:04:12;13.95;;;6.53;;
83115;SDS011;72996;40.206;44.498;2024-01-11T02:06:39;14.63;;;6.53;;
83115;SDS011;72996;40.206;44.498;2024-01-11T02:09:06;13.23;;;6.70;;
83115;SDS011;72996;40.206;44.498;2024-01-11T02:11:33;12.65;;;5.85;;
83115;SDS011;72996;40.206;44.498;2024-01-11T02:13:59;15.80;;;6.88;;
83115;SDS011;72996;40.206;44.498;2024-01-11T02:16:25;13.68;;;6.70;;
83115;SDS011;72996;40.206;44.498;2024-01-11T02:18:51;12.13;;;6.82;;
83115;SDS011;72996;40.206;44.498;2024-01-11T02:21:16;13.30;;;6.60;;
83115;SDS011;72996;40.206;44.498;2024-01-11T02:23:43;13.43;;;6.30;;
83115;SDS011;72996;40.206;44.498;2024-01-11T02:26:15;14.05;;;6.25;;
83115;SDS011;72996;40.206;44.498;2024-01-11T02:28:44;12.65;;;5.85;;
83115;SDS011;72996;40.206;44.498;2024-01-11T02:31:11;12.50;;;5.97;;
83115;SDS011;72996;40.206;44.498;2024-01-11T02:33:38;11.63;;;5.82;;
83115;SDS011;72996;40.206;44.498;2024-01-11T02:36:04;13.88;;;6.25;;
83115;SDS011;72996;40.206;44.498;2024-01-11T02:38:31;12.50;;;5.95;;
83115;SDS011;72996;40.206;44.498;2024-01-11T02:40:59;12.70;;;5.68;;
83115;SDS011;72996;40.206;44.498;2024-01-11T02:43:25;11.13;;;5.80;;
83115;SDS011;72996;40.206;44.498;2024-01-11T02:45:54;11.15;;;5.60;;
83115;SDS011;72996;40.206;44.498;2024-01-11T02:48:20;12.13;;;5.47;;
83115;SDS011;72996;40.206;44.498;2024-01-11T02:50:48;10.93;;;5.20;;
83115;SDS011;72996;40.206;44.498;2024-01-11T02:53:14;12.18;;;5.57;;
83115;SDS011;72996;40.206;44.498;2024-01-11T02:55:40;10.13;;;5.13;;
83115;SDS011;72996;40.206;44.498;2024-01-11T02:58:05;11.00;;;5.00;;
83115;SDS011;72996;40.206;44.498;2024-01-11T03:00:31;11.77;;;5.47;;
83115;SDS011;72996;40.206;44.498;2024-01-11T03:02:56;10.60;;;5.90;;
83115;SDS011;72996;40.206;44.498;2024-01-11T03:05:22;10.90;;;5.00;;
83115;SDS011;72996;40.206;44.498;2024-01-11T03:07:48;10.88;;;5.03;;
83115;SDS011;72996;40.206;44.498;2024-01-11T03:10:13;10.45;;;5.30;;
83115;SDS011;72996;40.206;44.498;2024-01-11T03:12:39;11.98;;;5.18;;
83115;SDS011;72996;40.206;44.498;2024-01-11T03:15:05;11.85;;;4.95;;
83115;SDS011;72996;40.206;44.498;2024-01-11T03:17:31;11.68;;;4.70;;
83115;SDS011;72996;40.206;44.498;2024-01-11T03:19:57;11.48;;;5.03;;
83115;SDS011;72996;40.206;44.498;2024-01-11T03:22:24;10.02;;;4.43;;
83115;SDS011;72996;40.206;44.498;2024-01-11T03:24:51;9.95;;;4.75;;
83115;SDS011;72996;40.206;44.498;2024-01-11T03:27:16;9.10;;;4.53;;
83115;SDS011;72996;40.206;44.498;2024-01-11T03:29:42;8.00;;;3.90;;
83115;SDS011;72996;40.206;44.498;2024-01-11T03:32:08;11.25;;;4.97;;
83115;SDS011;72996;40.206;44.498;2024-01-11T03:34:33;9.40;;;4.78;;
83115;SDS011;72996;40.206;44.498;2024-01-11T03:36:59;12.73;;;4.90;;
83115;SDS011;72996;40.206;44.498;2024-01-11T03:39:25;13.55;;;5.45;;
83115;SDS011;72996;40.206;44.498;2024-01-11T03:41:50;13.82;;;5.63;;
83115;SDS011;72996;40.206;44.498;2024-01-11T03:44:16;11.55;;;5.10;;
83115;SDS011;72996;40.206;44.498;2024-01-11T03:46:42;10.00;;;5.05;;
83115;SDS011;72996;40.206;44.498;2024-01-11T03:49:07;11.20;;;5.57;;
83115;SDS011;72996;40.206;44.498;2024-01-11T03:51:34;14.88;;;5.63;;
83115;SDS011;72996;40.206;44.498;2024-01-11T03:54:00;8.13;;;4.70;;
83115;SDS011;72996;40.206;44.498;2024-01-11T03:56:25;11.48;;;4.78;;
83115;SDS011;72996;40.206;44.498;2024-01-11T03:58:51;10.75;;;5.38;;
83115;SDS011;72996;40.206;44.498;2024-01-11T04:01:17;13.43;;;5.68;;
83115;SDS011;72996;40.206;44.498;2024-01-11T04:03:42;14.55;;;5.97;;
83115;SDS011;72996;40.206;44.498;2024-01-11T04:06:08;13.13;;;6.28;;
83115;SDS011;72996;40.206;44.498;2024-01-11T04:08:33;14.82;;;6.43;;
83115;SDS011;72996;40.206;44.498;2024-01-11T04:11:01;11.98;;;5.43;;
83115;SDS011;72996;40.206;44.498;2024-01-11T04:13:29;17.25;;;5.80;;
83115;SDS011;72996;40.206;44.498;2024-01-11T04:15:54;12.95;;;5.68;;
83115;SDS011;72996;40.206;44.498;2024-01-11T04:18:20;11.48;;;5.68;;
83115;SDS011;72996;40.206;44.498;2024-01-11T04:20:46;13.65;;;5.70;;
83115;SDS011;72996;40.206;44.498;2024-01-11T04:23:11;14.10;;;6.18;;
83115;SDS011;72996;40.206;44.498;2024-01-11T04:25:37;10.75;;;5.55;;
83115;SDS011;72996;40.206;44.498;2024-01-11T04:28:02;13.48;;;5.80;;
83115;SDS011;72996;40.206;44.498;2024-01-11T04:30:28;13.05;;;5.53;;
83115;SDS011;72996;40.206;44.498;2024-01-11T04:32:54;10.73;;;5.53;;
83115;SDS011;72996;40.206;44.498;2024-01-11T04:35:20;11.95;;;5.78;;
83115;SDS011;72996;40.206;44.498;2024-01-11T04:37:45;14.32;;;6.05;;
83115;SDS011;72996;40.206;44.498;2024-01-11T04:40:11;17.27;;;7.25;;
83115;SDS011;72996;40.206;44.498;2024-01-11T04:42:36;15.98;;;7.40;;
83115;SDS011;72996;40.206;44.498;2024-01-11T04:45:02;18.45;;;9.35;;
83115;SDS011;72996;40.206;44.498;2024-01-11T04:47:30;16.15;;;7.28;;
83115;SDS011;72996;40.206;44.498;2024-01-11T04:49:55;13.75;;;6.93;;
83115;SDS011;72996;40.206;44.498;2024-01-11T04:52:21;14.15;;;7.38;;
83115;SDS011;72996;40.206;44.498;2024-01-11T04:54:46;13.40;;;6.72;;
83115;SDS011;72996;40.206;44.498;2024-01-11T04:57:12;16.10;;;6.90;;
83115;SDS011;72996;40.206;44.498;2024-01-11T04:59:38;19.42;;;10.25;;
83115;SDS011;72996;40.206;44.498;2024-01-11T05:02:03;14.50;;;7.40;;
83115;SDS011;72996;40.206;44.498;2024-01-11T05:04:29;14.75;;;6.85;;
83115;SDS011;72996;40.206;44.498;2024-01-11T05:06:55;13.30;;;7.25;;
83115;SDS011;72996;40.206;44.498;2024-01-11T05:09:20;20.42;;;10.75;;
83115;SDS011;72996;40.206;44.498;2024-01-11T05:11:46;21.08;;;11.20;;
83115;SDS011;72996;40.206;44.498;2024-01-11T05:14:11;14.85;;;7.05;;
83115;SDS011;72996;40.206;44.498;2024-01-11T05:16:37;17.02;;;8.68;;
83115;SDS011;72996;40.206;44.498;2024-01-11T05:19:04;16.48;;;7.82;;
83115;SDS011;72996;40.206;44.498;2024-01-11T05:21:29;16.10;;;8.02;;
83115;SDS011;72996;40.206;44.498;2024-01-11T05:23:55;20.20;;;7.28;;
83115;SDS011;72996;40.206;44.498;2024-01-11T05:26:21;12.82;;;6.20;;
83115;SDS011;72996;40.206;44.498;2024-01-11T05:28:47;16.63;;;6.95;;
83115;SDS011;72996;40.206;44.498;2024-01-11T05:31:14;20.30;;;7.05;;
83115;SDS011;72996;40.206;44.498;2024-01-11T05:33:40;17.48;;;7.80;;
83115;SDS011;72996;40.206;44.498;2024-01-11T05:36:07;18.92;;;7.43;;
83115;SDS011;72996;40.206;44.498;2024-01-11T05:38:33;21.50;;;7.65;;
83115;SDS011;72996;40.206;44.498;2024-01-11T05:40:59;15.38;;;6.85;;
83115;SDS011;72996;40.206;44.498;2024-01-11T05:43:25;16.73;;;7.47;;
83115;SDS011;72996;40.206;44.498;2024-01-11T05:45:51;16.42;;;7.57;;
83115;SDS011;72996;40.206;44.498;2024-01-11T05:48:16;14.27;;;6.63;;
83115;SDS011;72996;40.206;44.498;2024-01-11T05:50:43;16.73;;;7.03;;
83115;SDS011;72996;40.206;44.498;2024-01-11T05:53:09;16.60;;;7.00;;
83115;SDS011;72996;40.206;44.498;2024-01-11T05:55:35;16.70;;;6.97;;
83115;SDS011;72996;40.206;44.498;2024-01-11T05:58:01;15.77;;;7.80;;
83115;SDS011;72996;40.206;44.498;2024-01-11T06:00:26;17.95;;;8.57;;
83115;SDS011;72996;40.206;44.498;2024-01-11T06:02:52;20.77;;;8.77;;
83115;SDS011;72996;40.206;44.498;2024-01-11T06:05:18;24.50;;;9.43;;
83115;SDS011;72996;40.206;44.498;2024-01-11T06:07:44;14.98;;;6.20;;
83115;SDS011;72996;40.206;44.498;2024-01-11T06:10:09;15.95;;;8.02;;
83115;SDS011;72996;40.206;44.498;2024-01-11T06:12:35;12.75;;;6.10;;
83115;SDS011;72996;40.206;44.498;2024-01-11T06:15:02;18.80;;;8.05;;
83115;SDS011;72996;40.206;44.498;2024-01-11T06:17:27;15.63;;;6.95;;
83115;SDS011;72996;40.206;44.498;2024-01-11T06:19:53;13.77;;;5.82;;
83115;SDS011;72996;40.206;44.498;2024-01-11T06:22:20;13.98;;;6.85;;
83115;SDS011;72996;40.206;44.498;2024-01-11T06:24:46;16.40;;;7.25;;
83115;SDS011;72996;40.206;44.498;2024-01-11T06:27:11;20.52;;;8.32;;
83115;SDS011;72996;40.206;44.498;2024-01-11T06:29:37;19.13;;;7.57;;
83115;SDS011;72996;40.206;44.498;2024-01-11T06:32:03;18.73;;;8.48;;
83115;SDS011;72996;40.206;44.498;2024-01-11T06:34:29;22.08;;;8.77;;
83115;SDS011;72996;40.206;44.498;2024-01-11T06:36:55;18.15;;;9.55;;
83115;SDS011;72996;40.206;44.498;2024-01-11T06:39:21;22.40;;;9.20;;
83115;SDS011;72996;40.206;44.498;2024-01-11T06:41:47;19.73;;;9.88;;
83115;SDS011;72996;40.206;44.498;2024-01-11T06:44:12;18.77;;;10.07;;
83115;SDS011;72996;40.206;44.498;2024-01-11T06:46:38;24.98;;;10.43;;
83115;SDS011;72996;40.206;44.498;2024-01-11T06:49:07;21.63;;;10.80;;
83115;SDS011;72996;40.206;44.498;2024-01-11T06:51:33;22.45;;;10.85;;
83115;SDS011;72996;40.206;44.498;2024-01-11T06:53:59;23.05;;;12.05;;
83115;SDS011;72996;40.206;44.498;2024-01-11T06:56:26;24.90;;;12.95;;
83115;SDS011;72996;40.206;44.498;2024-01-11T06:58:52;24.70;;;11.43;;
83115;SDS011;72996;40.206;44.498;2024-01-11T07:01:19;25.13;;;12.52;;
83115;SDS011;72996;40.206;44.498;2024-01-11T07:03:45;24.63;;;12.23;;
83115;SDS011;72996;40.206;44.498;2024-01-11T07:06:10;32.63;;;14.82;;
83115;SDS011;72996;40.206;44.498;2024-01-11T07:08:37;27.15;;;13.10;;
83115;SDS011;72996;40.206;44.498;2024-01-11T07:11:03;25.48;;;10.15;;
83115;SDS011;72996;40.206;44.498;2024-01-11T07:13:31;20.58;;;9.18;;
83115;SDS011;72996;40.206;44.498;2024-01-11T07:15:57;11.32;;;5.90;;
83115;SDS011;72996;40.206;44.498;2024-01-11T07:18:24;13.85;;;6.97;;
83115;SDS011;72996;40.206;44.498;2024-01-11T07:20:50;20.85;;;9.32;;
83115;SDS011;72996;40.206;44.498;2024-01-11T07:23:16;16.45;;;8.13;;
83115;SDS011;72996;40.206;44.498;2024-01-11T07:25:42;22.30;;;9.07;;
83115;SDS011;72996;40.206;44.498;2024-01-11T07:28:08;14.80;;;7.80;;
83115;SDS011;72996;40.206;44.498;2024-01-11T07:30:34;17.80;;;7.47;;
83115;SDS011;72996;40.206;44.498;2024-01-11T07:32:59;13.52;;;6.80;;
83115;SDS011;72996;40.206;44.498;2024-01-11T07:35:25;13.93;;;7.22;;
83115;SDS011;72996;40.206;44.498;2024-01-11T07:37:51;17.98;;;7.97;;
83115;SDS011;72996;40.206;44.498;2024-01-11T07:40:17;14.50;;;7.43;;
83115;SDS011;72996;40.206;44.498;2024-01-11T07:42:43;16.13;;;8.30;;
83115;SDS011;72996;40.206;44.498;2024-01-11T07:45:09;17.10;;;7.68;;
83115;SDS011;72996;40.206;44.498;2024-01-11T07:47:39;17.45;;;7.97;;
83115;SDS011;72996;40.206;44.498;2024-01-11T07:50:05;14.32;;;7.00;;
83115;SDS011;72996;40.206;44.498;2024-01-11T07:52:35;16.00;;;7.82;;
83115;SDS011;72996;40.206;44.498;2024-01-11T07:55:05;15.15;;;7.45;;
83115;SDS011;72996;40.206;44.498;2024-01-11T07:57:35;14.30;;;7.10;;
83115;SDS011;72996;40.206;44.498;2024-01-11T08:00:01;18.15;;;8.50;;
83115;SDS011;72996;40.206;44.498;2024-01-11T08:02:29;16.73;;;7.88;;
83115;SDS011;72996;40.206;44.498;2024-01-11T08:04:54;16.83;;;8.32;;
83115;SDS011;72996;40.206;44.498;2024-01-11T08:07:20;17.20;;;10.38;;
83115;SDS011;72996;40.206;44.498;2024-01-11T08:09:46;29.98;;;14.57;;
83115;SDS011;72996;40.206;44.498;2024-01-11T08:12:13;14.48;;;7.93;;
83115;SDS011;72996;40.206;44.498;2024-01-11T08:14:39;16.42;;;7.45;;
83115;SDS011;72996;40.206;44.498;2024-01-11T08:17:07;16.55;;;8.38;;
83115;SDS011;72996;40.206;44.498;2024-01-11T08:19:33;18.98;;;8.40;;
83115;SDS011;72996;40.206;44.498;2024-01-11T08:22:00;14.20;;;7.28;;
83115;SDS011;72996;40.206;44.498;2024-01-11T08:24:26;15.52;;;8.85;;
83115;SDS011;72996;40.206;44.498;2024-01-11T08:26:52;16.73;;;8.65;;
83115;SDS011;72996;40.206;44.498;2024-01-11T08:29:18;16.45;;;8.48;;
83115;SDS011;72996;40.206;44.498;2024-01-11T08:31:45;15.65;;;7.75;;
83115;SDS011;72996;40.206;44.498;2024-01-11T08:34:11;15.35;;;8.07;;
83115;SDS011;72996;40.206;44.498;2024-01-11T08:36:37;15.98;;;8.50;;
83115;SDS011;72996;40.206;44.498;2024-01-11T08:39:04;17.25;;;8.45;;
83115;SDS011;72996;40.206;44.498;2024-01-11T08:41:36;15.50;;;7.57;;
83115;SDS011;72996;40.206;44.498;2024-01-11T08:44:05;13.10;;;7.40;;
83115;SDS011;72996;40.206;44.498;2024-01-11T08:46:31;15.13;;;9.07;;
83115;SDS011;72996;40.206;44.498;2024-01-11T08:48:58;15.50;;;8.88;;
83115;SDS011;72996;40.206;44.498;2024-01-11T08:51:31;18.08;;;8.35;;
83115;SDS011;72996;40.206;44.498;2024-01-11T08:53:57;20.02;;;10.43;;
83115;SDS011;72996;40.206;44.498;2024-01-11T08:56:23;19.10;;;11.50;;
83115;SDS011;72996;40.206;44.498;2024-01-11T08:58:49;18.75;;;9.40;;
83115;SDS011;72996;40.206;44.498;2024-01-11T09:01:14;18.13;;;8.85;;
83115;SDS011;72996;40.206;44.498;2024-01-11T09:03:41;16.25;;;9.13;;
83115;SDS011;72996;40.206;44.498;2024-01-11T09:06:06;19.23;;;9.15;;
83115;SDS011;72996;40.206;44.498;2024-01-11T09:08:32;19.58;;;9.68;;
83115;SDS011;72996;40.206;44.498;2024-01-11T09:10:59;17.02;;;9.77;;
83115;SDS011;72996;40.206;44.498;2024-01-11T09:13:25;19.85;;;9.77;;
83115;SDS011;72996;40.206;44.498;2024-01-11T09:15:52;19.77;;;8.95;;
83115;SDS011;72996;40.206;44.498;2024-01-11T09:18:19;20.00;;;9.20;;
83115;SDS011;72996;40.206;44.498;2024-01-11T09:20:45;20.48;;;9.93;;
83115;SDS011;72996;40.206;44.498;2024-01-11T09:23:11;24.05;;;14.80;;
83115;SDS011;72996;40.206;44.498;2024-01-11T09:25:37;18.15;;;8.88;;
83115;SDS011;72996;40.206;44.498;2024-01-11T09:28:02;21.48;;;9.23;;
83115;SDS011;72996;40.206;44.498;2024-01-11T09:30:28;18.25;;;9.18;;
83115;SDS011;72996;40.206;44.498;2024-01-11T09:32:54;23.45;;;10.05;;
83115;SDS011;72996;40.206;44.498;2024-01-11T09:35:23;19.10;;;10.50;;
83115;SDS011;72996;40.206;44.498;2024-01-11T09:37:49;19.58;;;8.93;;
83115;SDS011;72996;40.206;44.498;2024-01-11T09:40:15;20.15;;;9.05;;
83115;SDS011;72996;40.206;44.498;2024-01-11T09:42:42;20.90;;;10.63;;
83115;SDS011;72996;40.206;44.498;2024-01-11T09:45:09;26.45;;;9.48;;
83115;SDS011;72996;40.206;44.498;2024-01-11T09:47:38;24.88;;;12.05;;
83115;SDS011;72996;40.206;44.498;2024-01-11T09:50:05;26.92;;;12.40;;
83115;SDS011;72996;40.206;44.498;2024-01-11T09:52:31;22.38;;;9.15;;
83115;SDS011;72996;40.206;44.498;2024-01-11T09:54:58;23.73;;;11.63;;
83115;SDS011;72996;40.206;44.498;2024-01-11T09:57:30;24.48;;;11.63;;
83115;SDS011;72996;40.206;44.498;2024-01-11T10:00:00;24.02;;;13.13;;
83115;SDS011;72996;40.206;44.498;2024-01-11T10:02:29;24.15;;;10.88;;
83115;SDS011;72996;40.206;44.498;2024-01-11T10:04:55;34.17;;;15.82;;
83115;SDS011;72996;40.206;44.498;2024-01-11T10:07:21;32.00;;;15.82;;
83115;SDS011;72996;40.206;44.498;2024-01-11T10:09:48;39.65;;;16.33;;
83115;SDS011;72996;40.206;44.498;2024-01-11T10:12:14;36.55;;;18.33;;
83115;SDS011;72996;40.206;44.498;2024-01-11T10:14:40;34.22;;;17.25;;
83115;SDS011;72996;40.206;44.498;2024-01-11T10:17:06;32.90;;;16.05;;
83115;SDS011;72996;40.206;44.498;2024-01-11T10:19:32;35.85;;;15.93;;
83115;SDS011;72996;40.206;44.498;2024-01-11T10:21:58;31.65;;;15.35;;
83115;SDS011;72996;40.206;44.498;2024-01-11T10:24:24;37.20;;;16.83;;
83115;SDS011;72996;40.206;44.498;2024-01-11T10:26:59;37.60;;;16.45;;
83115;SDS011;72996;40.206;44.498;2024-01-11T10:29:33;39.08;;;17.20;;
83115;SDS011;72996;40.206;44.498;2024-01-11T10:32:02;40.63;;;16.60;;
83115;SDS011;72996;40.206;44.498;2024-01-11T10:34:29;39.90;;;17.60;;
83115;SDS011;72996;40.206;44.498;2024-01-11T10:36:55;36.30;;;16.38;;
83115;SDS011;72996;40.206;44.498;2024-01-11T10:39:23;39.10;;;18.60;;
83115;SDS011;72996;40.206;44.498;2024-01-11T10:41:51;39.90;;;19.30;;
83115;SDS011;72996;40.206;44.498;2024-01-11T10:44:20;40.35;;;18.00;;
83115;SDS011;72996;40.206;44.498;2024-01-11T10:46:48;39.10;;;17.33;;
83115;SDS011;72996;40.206;44.498;2024-01-11T10:49:18;38.20;;;17.45;;
83115;SDS011;72996;40.206;44.498;2024-01-11T10:51:57;38.05;;;18.25;;
83115;SDS011;72996;40.206;44.498;2024-01-11T10:54:25;42.38;;;18.40;;
83115;SDS011;72996;40.206;44.498;2024-01-11T10:56:52;48.65;;;19.23;;
83115;SDS011;72996;40.206;44.498;2024-01-11T10:59:20;40.00;;;17.80;;
83115;SDS011;72996;40.206;44.498;2024-01-11T11:01:53;35.72;;;17.23;;
83115;SDS011;72996;40.206;44.498;2024-01-11T11:04:24;37.45;;;17.67;;
83115;SDS011;72996;40.206;44.498;2024-01-11T11:06:56;38.10;;;18.08;;
83115;SDS011;72996;40.206;44.498;2024-01-11T11:09:23;40.42;;;17.50;;
83115;SDS011;72996;40.206;44.498;2024-01-11T11:11:50;44.17;;;18.80;;
83115;SDS011;72996;40.206;44.498;2024-01-11T11:14:19;37.80;;;17.65;;
83115;SDS011;72996;40.206;44.498;2024-01-11T11:16:46;39.85;;;18.13;;
83115;SDS011;72996;40.206;44.498;2024-01-11T11:19:11;36.03;;;16.30;;
83115;SDS011;72996;40.206;44.498;2024-01-11T11:21:43;41.28;;;18.25;;
83115;SDS011;72996;40.206;44.498;2024-01-11T11:24:12;38.45;;;18.48;;
83115;SDS011;72996;40.206;44.498;2024-01-11T11:26:38;36.45;;;17.13;;
83115;SDS011;72996;40.206;44.498;2024-01-11T11:29:04;39.78;;;17.23;;
83115;SDS011;72996;40.206;44.498;2024-01-11T11:32:04;42.05;;;19.70;;
83115;SDS011;72996;40.206;44.498;2024-01-11T11:34:43;42.28;;;18.70;;
83115;SDS011;72996;40.206;44.498;2024-01-11T11:37:12;37.65;;;16.45;;
83115;SDS011;72996;40.206;44.498;2024-01-11T11:39:38;37.65;;;17.02;;
83115;SDS011;72996;40.206;44.498;2024-01-11T11:42:07;44.22;;;18.48;;
83115;SDS011;72996;40.206;44.498;2024-01-11T11:44:33;36.10;;;16.88;;
83115;SDS011;72996;40.206;44.498;2024-01-11T11:52:29;35.42;;;16.38;;
83115;SDS011;72996;40.206;44.498;2024-01-11T11:54:57;39.35;;;16.65;;
83115;SDS011;72996;40.206;44.498;2024-01-11T11:57:24;36.42;;;16.15;;
83115;SDS011;72996;40.206;44.498;2024-01-11T11:59:54;42.03;;;18.52;;
83115;SDS011;72996;40.206;44.498;2024-01-11T12:02:24;34.75;;;16.83;;
83115;SDS011;72996;40.206;44.498;2024-01-11T12:04:52;41.15;;;18.95;;
83115;SDS011;72996;40.206;44.498;2024-01-11T12:07:19;38.22;;;17.63;;
83115;SDS011;72996;40.206;44.498;2024-01-11T12:09:46;39.72;;;17.02;;
83115;SDS011;72996;40.206;44.498;2024-01-11T12:12:12;37.08;;;17.55;;
83115;SDS011;72996;40.206;44.498;2024-01-11T12:14:38;44.50;;;21.52;;
83115;SDS011;72996;40.206;44.498;2024-01-11T12:17:05;44.38;;;18.38;;
83115;SDS011;72996;40.206;44.498;2024-01-11T12:19:31;41.47;;;18.17;;
83115;SDS011;72996;40.206;44.498;2024-01-11T12:21:57;43.28;;;18.15;;
83115;SDS011;72996;40.206;44.498;2024-01-11T12:24:23;40.17;;;18.50;;
83115;SDS011;72996;40.206;44.498;2024-01-11T12:26:49;43.42;;;18.23;;
83115;SDS011;72996;40.206;44.498;2024-01-11T12:29:22;37.78;;;16.58;;
83115;SDS011;72996;40.206;44.498;2024-01-11T12:31:49;41.25;;;17.95;;
83115;SDS011;72996;40.206;44.498;2024-01-11T12:34:16;44.38;;;17.77;;
83115;SDS011;72996;40.206;44.498;2024-01-11T12:36:41;37.60;;;16.35;;
83115;SDS011;72996;40.206;44.498;2024-01-11T12:39:08;38.53;;;17.08;;
83115;SDS011;72996;40.206;44.498;2024-01-11T12:41:38;39.47;;;18.23;;
83115;SDS011;72996;40.206;44.498;2024-01-11T12:44:04;45.17;;;18.50;;
83115;SDS011;72996;40.206;44.498;2024-01-11T12:46:30;41.10;;;17.95;;
83115;SDS011;72996;40.206;44.498;2024-01-11T12:48:56;38.80;;;18.05;;
83115;SDS011;72996;40.206;44.498;2024-01-11T12:51:22;39.30;;;17.02;;
83115;SDS011;72996;40.206;44.498;2024-01-11T12:53:47;41.72;;;19.00;;
83115;SDS011;72996;40.206;44.498;2024-01-11T12:56:14;41.50;;;18.95;;
83115;SDS011;72996;40.206;44.498;2024-01-11T12:58:41;40.70;;;18.27;;
83115;SDS011;72996;40.206;44.498;2024-01-11T13:01:07;45.55;;;18.88;;
83115;SDS011;72996;40.206;44.498;2024-01-11T13:03:34;45.22;;;18.73;;
83115;SDS011;72996;40.206;44.498;2024-01-11T13:06:03;42.70;;;18.35;;
83115;SDS011;72996;40.206;44.498;2024-01-11T13:08:34;43.50;;;19.02;;
83115;SDS011;72996;40.206;44.498;2024-01-11T13:11:01;40.55;;;18.17;;
83115;SDS011;72996;40.206;44.498;2024-01-11T13:13:32;40.03;;;18.02;;
83115;SDS011;72996;40.206;44.498;2024-01-11T13:15:59;42.20;;;18.73;;
83115;SDS011;72996;40.206;44.498;2024-01-11T13:18:25;39.70;;;18.33;;
83115;SDS011;72996;40.206;44.498;2024-01-11T13:20:50;44.35;;;17.85;;
83115;SDS011;72996;40.206;44.498;2024-01-11T13:23:17;45.13;;;19.42;;
83115;SDS011;72996;40.206;44.498;2024-01-11T13:25:45;47.67;;;20.35;;
83115;SDS011;72996;40.206;44.498;2024-01-11T13:28:12;45.83;;;20.95;;
83115;SDS011;72996;40.206;44.498;2024-01-11T13:30:42;46.78;;;19.17;;
83115;SDS011;72996;40.206;44.498;2024-01-11T13:33:09;47.15;;;20.20;;
83115;SDS011;72996;40.206;44.498;2024-01-11T13:35:39;42.00;;;19.75;;
83115;SDS011;72996;40.206;44.498;2024-01-11T13:38:08;42.17;;;18.92;;
83115;SDS011;72996;40.206;44.498;2024-01-11T13:40:34;45.75;;;19.58;;
83115;SDS011;72996;40.206;44.498;2024-01-11T13:43:00;51.67;;;21.73;;
83115;SDS011;72996;40.206;44.498;2024-01-11T13:45:29;44.45;;;21.10;;
83115;SDS011;72996;40.206;44.498;2024-01-11T13:47:55;56.50;;;30.20;;
83115;SDS011;72996;40.206;44.498;2024-01-11T13:50:21;48.38;;;26.17;;
83115;SDS011;72996;40.206;44.498;2024-01-11T13:52:49;48.03;;;20.98;;
83115;SDS011;72996;40.206;44.498;2024-01-11T13:55:15;42.08;;;19.10;;
83115;SDS011;72996;40.206;44.498;2024-01-11T13:57:43;43.20;;;19.55;;
83115;SDS011;72996;40.206;44.498;2024-01-11T14:00:09;42.20;;;18.95;;
83115;SDS011;72996;40.206;44.498;2024-01-11T14:02:38;45.70;;;19.63;;
83115;SDS011;72996;40.206;44.498;2024-01-11T14:05:05;48.38;;;20.48;;
83115;SDS011;72996;40.206;44.498;2024-01-11T14:07:37;46.45;;;20.65;;
83115;SDS011;72996;40.206;44.498;2024-01-11T14:10:04;54.22;;;26.58;;
83115;SDS011;72996;40.206;44.498;2024-01-11T14:12:31;51.30;;;21.52;;
83115;SDS011;72996;40.206;44.498;2024-01-11T14:14:57;51.08;;;21.75;;
83115;SDS011;72996;40.206;44.498;2024-01-11T14:17:23;45.97;;;21.45;;
83115;SDS011;72996;40.206;44.498;2024-01-11T14:19:48;56.13;;;23.98;;